sensor_id;sensor_type;location;lat;lon;timestamp;P1;durP1;ratioP1;P2;durP2;ratioP2
13230;SDS011;6681;53.254;10.398;2023-05-07T00:00:21;9.70;;;7.43;;
13230;SDS011;6681;53.254;10.398;2023-05-07T00:02:47;11.70;;;8.07;;
13230;SDS011;6681;53.254;10.398;2023-05-07T00:05:13;12.33;;;8.47;;
13230;SDS011;6681;53.254;10.398;2023-05-07T00:07:39;7.43;;;6.63;;
13230;SDS011;6681;53.254;10.398;2023-05-07T00:10:06;8.43;;;7.13;;
13230;SDS011;6681;53.254;10.398;2023-05-07T00:12:35;8.07;;;6.90;;
13230;SDS011;6681;53.254;10.398;2023-05-07T00:15:04;10.63;;;7.50;;
13230;SDS011;6681;53.254;10.398;2023-05-07T00:17:30;9.60;;;7.20;;
13230;SDS011;6681;53.254;10.398;2023-05-07T00:19:57;7.33;;;6.60;;
13230;SDS011;6681;53.254;10.398;2023-05-07T00:22:23;8.17;;;7.10;;
13230;SDS011;6681;53.254;10.398;2023-05-07T00:24:48;11.10;;;6.60;;
13230;SDS011;6681;53.254;10.398;2023-05-07T00:27:14;7.60;;;6.67;;
13230;SDS011;6681;53.254;10.398;2023-05-07T00:29:40;7.57;;;6.87;;
13230;SDS011;6681;53.254;10.398;2023-05-07T00:32:05;10.00;;;6.77;;
13230;SDS011;6681;53.254;10.398;2023-05-07T00:34:31;7.63;;;6.67;;
13230;SDS011;6681;53.254;10.398;2023-05-07T00:36:57;7.10;;;6.40;;
13230;SDS011;6681;53.254;10.398;2023-05-07T00:39:22;7.63;;;6.87;;
13230;SDS011;6681;53.254;10.398;2023-05-07T00:41:48;8.43;;;6.87;;
13230;SDS011;6681;53.254;10.398;2023-05-07T00:44:13;8.33;;;7.50;;
13230;SDS011;6681;53.254;10.398;2023-05-07T00:46:39;7.40;;;6.43;;
13230;SDS011;6681;53.254;10.398;2023-05-07T00:49:05;6.60;;;5.90;;
13230;SDS011;6681;53.254;10.398;2023-05-07T00:51:31;6.83;;;6.10;;
13230;SDS011;6681;53.254;10.398;2023-05-07T00:53:58;8.57;;;7.60;;
13230;SDS011;6681;53.254;10.398;2023-05-07T00:56:24;8.93;;;7.70;;
13230;SDS011;6681;53.254;10.398;2023-05-07T00:58:50;7.33;;;6.50;;
13230;SDS011;6681;53.254;10.398;2023-05-07T01:01:16;7.67;;;6.97;;
13230;SDS011;6681;53.254;10.398;2023-05-07T01:03:42;7.70;;;6.23;;
13230;SDS011;6681;53.254;10.398;2023-05-07T01:06:08;9.23;;;7.20;;
13230;SDS011;6681;53.254;10.398;2023-05-07T01:08:37;8.47;;;6.80;;
13230;SDS011;6681;53.254;10.398;2023-05-07T01:11:04;7.50;;;6.70;;
13230;SDS011;6681;53.254;10.398;2023-05-07T01:13:31;7.87;;;6.80;;
13230;SDS011;6681;53.254;10.398;2023-05-07T01:15:58;9.60;;;8.13;;
13230;SDS011;6681;53.254;10.398;2023-05-07T01:18:24;10.23;;;8.23;;
13230;SDS011;6681;53.254;10.398;2023-05-07T01:20:51;9.53;;;7.30;;
13230;SDS011;6681;53.254;10.398;2023-05-07T01:23:17;7.97;;;6.93;;
13230;SDS011;6681;53.254;10.398;2023-05-07T01:25:50;7.30;;;6.67;;
13230;SDS011;6681;53.254;10.398;2023-05-07T01:28:19;8.23;;;7.17;;
13230;SDS011;6681;53.254;10.398;2023-05-07T01:30:51;9.87;;;8.57;;
13230;SDS011;6681;53.254;10.398;2023-05-07T01:33:24;8.77;;;7.00;;
13230;SDS011;6681;53.254;10.398;2023-05-07T01:35:53;8.97;;;7.73;;
13230;SDS011;6681;53.254;10.398;2023-05-07T01:38:20;8.60;;;7.57;;
13230;SDS011;6681;53.254;10.398;2023-05-07T01:40:47;9.87;;;7.83;;
13230;SDS011;6681;53.254;10.398;2023-05-07T01:43:13;8.30;;;7.50;;
13230;SDS011;6681;53.254;10.398;2023-05-07T01:45:39;10.03;;;8.07;;
13230;SDS011;6681;53.254;10.398;2023-05-07T01:48:06;11.63;;;8.47;;
13230;SDS011;6681;53.254;10.398;2023-05-07T01:50:33;8.60;;;7.77;;
13230;SDS011;6681;53.254;10.398;2023-05-07T01:52:59;7.90;;;7.10;;
13230;SDS011;6681;53.254;10.398;2023-05-07T01:55:26;8.70;;;7.70;;
13230;SDS011;6681;53.254;10.398;2023-05-07T01:57:52;9.33;;;8.30;;
13230;SDS011;6681;53.254;10.398;2023-05-07T02:00:18;10.73;;;8.37;;
13230;SDS011;6681;53.254;10.398;2023-05-07T02:02:44;10.53;;;8.67;;
13230;SDS011;6681;53.254;10.398;2023-05-07T02:05:09;12.13;;;8.37;;
13230;SDS011;6681;53.254;10.398;2023-05-07T02:07:35;9.70;;;8.70;;
13230;SDS011;6681;53.254;10.398;2023-05-07T02:10:01;8.13;;;7.23;;
13230;SDS011;6681;53.254;10.398;2023-05-07T02:12:26;7.97;;;6.97;;
13230;SDS011;6681;53.254;10.398;2023-05-07T02:14:52;12.07;;;8.83;;
13230;SDS011;6681;53.254;10.398;2023-05-07T02:17:17;9.57;;;8.57;;
13230;SDS011;6681;53.254;10.398;2023-05-07T02:19:43;9.60;;;7.70;;
13230;SDS011;6681;53.254;10.398;2023-05-07T02:22:09;10.37;;;8.40;;
13230;SDS011;6681;53.254;10.398;2023-05-07T02:24:35;11.57;;;9.77;;
13230;SDS011;6681;53.254;10.398;2023-05-07T02:27:00;9.43;;;8.30;;
13230;SDS011;6681;53.254;10.398;2023-05-07T02:29:27;10.60;;;7.90;;
13230;SDS011;6681;53.254;10.398;2023-05-07T02:31:52;11.87;;;9.47;;
13230;SDS011;6681;53.254;10.398;2023-05-07T02:34:18;10.17;;;8.97;;
13230;SDS011;6681;53.254;10.398;2023-05-07T02:36:44;11.30;;;9.57;;
13230;SDS011;6681;53.254;10.398;2023-05-07T02:39:10;11.93;;;9.53;;
13230;SDS011;6681;53.254;10.398;2023-05-07T02:41:37;12.40;;;9.97;;
13230;SDS011;6681;53.254;10.398;2023-05-07T02:44:02;11.03;;;9.90;;
13230;SDS011;6681;53.254;10.398;2023-05-07T02:46:28;10.67;;;9.07;;
13230;SDS011;6681;53.254;10.398;2023-05-07T02:48:54;12.70;;;9.97;;
13230;SDS011;6681;53.254;10.398;2023-05-07T02:51:20;13.60;;;10.33;;
13230;SDS011;6681;53.254;10.398;2023-05-07T02:53:47;13.83;;;11.30;;
13230;SDS011;6681;53.254;10.398;2023-05-07T02:56:12;11.10;;;9.50;;
13230;SDS011;6681;53.254;10.398;2023-05-07T02:58:38;11.03;;;9.40;;
13230;SDS011;6681;53.254;10.398;2023-05-07T03:01:12;11.43;;;8.77;;
13230;SDS011;6681;53.254;10.398;2023-05-07T03:03:39;11.80;;;9.73;;
13230;SDS011;6681;53.254;10.398;2023-05-07T03:06:05;12.17;;;9.97;;
13230;SDS011;6681;53.254;10.398;2023-05-07T03:08:31;9.73;;;8.80;;
13230;SDS011;6681;53.254;10.398;2023-05-07T03:10:57;11.50;;;9.67;;
13230;SDS011;6681;53.254;10.398;2023-05-07T03:13:23;8.73;;;7.80;;
13230;SDS011;6681;53.254;10.398;2023-05-07T03:15:49;17.73;;;8.97;;
13230;SDS011;6681;53.254;10.398;2023-05-07T03:18:14;9.73;;;8.67;;
13230;SDS011;6681;53.254;10.398;2023-05-07T03:20:40;9.30;;;8.40;;
13230;SDS011;6681;53.254;10.398;2023-05-07T03:23:05;11.47;;;8.93;;
13230;SDS011;6681;53.254;10.398;2023-05-07T03:25:31;9.60;;;8.43;;
13230;SDS011;6681;53.254;10.398;2023-05-07T03:27:57;9.93;;;8.93;;
13230;SDS011;6681;53.254;10.398;2023-05-07T03:30:23;13.27;;;9.30;;
13230;SDS011;6681;53.254;10.398;2023-05-07T03:32:49;12.17;;;10.23;;
13230;SDS011;6681;53.254;10.398;2023-05-07T03:35:15;9.50;;;8.47;;
13230;SDS011;6681;53.254;10.398;2023-05-07T03:37:40;10.70;;;9.20;;
13230;SDS011;6681;53.254;10.398;2023-05-07T03:40:06;10.47;;;9.17;;
13230;SDS011;6681;53.254;10.398;2023-05-07T03:42:33;12.90;;;10.43;;
13230;SDS011;6681;53.254;10.398;2023-05-07T03:44:58;12.63;;;9.80;;
13230;SDS011;6681;53.254;10.398;2023-05-07T03:47:24;11.57;;;9.33;;
13230;SDS011;6681;53.254;10.398;2023-05-07T03:49:50;11.10;;;8.97;;
13230;SDS011;6681;53.254;10.398;2023-05-07T03:52:17;10.00;;;8.33;;
13230;SDS011;6681;53.254;10.398;2023-05-07T03:54:47;11.47;;;8.90;;
13230;SDS011;6681;53.254;10.398;2023-05-07T03:57:13;12.27;;;9.80;;
13230;SDS011;6681;53.254;10.398;2023-05-07T03:59:39;10.43;;;9.13;;
13230;SDS011;6681;53.254;10.398;2023-05-07T04:02:04;10.93;;;9.40;;
13230;SDS011;6681;53.254;10.398;2023-05-07T04:04:30;10.13;;;8.13;;
13230;SDS011;6681;53.254;10.398;2023-05-07T04:06:57;13.20;;;9.43;;
13230;SDS011;6681;53.254;10.398;2023-05-07T04:09:24;12.67;;;10.43;;
13230;SDS011;6681;53.254;10.398;2023-05-07T04:11:50;11.17;;;9.93;;
13230;SDS011;6681;53.254;10.398;2023-05-07T04:14:15;10.13;;;9.13;;
13230;SDS011;6681;53.254;10.398;2023-05-07T04:16:41;13.30;;;8.83;;
13230;SDS011;6681;53.254;10.398;2023-05-07T04:19:07;13.00;;;10.00;;
13230;SDS011;6681;53.254;10.398;2023-05-07T04:21:32;13.27;;;9.23;;
13230;SDS011;6681;53.254;10.398;2023-05-07T04:24:02;14.13;;;10.37;;
13230;SDS011;6681;53.254;10.398;2023-05-07T04:26:28;11.43;;;8.90;;
13230;SDS011;6681;53.254;10.398;2023-05-07T04:28:54;13.97;;;9.37;;
13230;SDS011;6681;53.254;10.398;2023-05-07T04:31:20;12.27;;;9.57;;
13230;SDS011;6681;53.254;10.398;2023-05-07T04:33:45;11.50;;;10.17;;
13230;SDS011;6681;53.254;10.398;2023-05-07T04:36:11;11.83;;;9.60;;
13230;SDS011;6681;53.254;10.398;2023-05-07T04:38:37;14.13;;;9.93;;
13230;SDS011;6681;53.254;10.398;2023-05-07T04:41:03;9.80;;;8.80;;
13230;SDS011;6681;53.254;10.398;2023-05-07T04:43:30;9.13;;;8.23;;
13230;SDS011;6681;53.254;10.398;2023-05-07T04:45:56;9.77;;;8.50;;
13230;SDS011;6681;53.254;10.398;2023-05-07T04:48:21;11.87;;;8.50;;
13230;SDS011;6681;53.254;10.398;2023-05-07T04:50:47;11.93;;;9.00;;
13230;SDS011;6681;53.254;10.398;2023-05-07T04:53:13;9.67;;;8.23;;
13230;SDS011;6681;53.254;10.398;2023-05-07T04:55:39;10.50;;;8.33;;
13230;SDS011;6681;53.254;10.398;2023-05-07T04:58:05;12.07;;;9.67;;
13230;SDS011;6681;53.254;10.398;2023-05-07T05:00:32;13.43;;;10.73;;
13230;SDS011;6681;53.254;10.398;2023-05-07T05:02:58;17.10;;;11.70;;
13230;SDS011;6681;53.254;10.398;2023-05-07T05:05:23;13.20;;;10.97;;
13230;SDS011;6681;53.254;10.398;2023-05-07T05:07:49;13.47;;;9.53;;
13230;SDS011;6681;53.254;10.398;2023-05-07T05:10:16;8.77;;;7.87;;
13230;SDS011;6681;53.254;10.398;2023-05-07T05:12:42;12.47;;;9.83;;
13230;SDS011;6681;53.254;10.398;2023-05-07T05:15:08;10.53;;;8.67;;
13230;SDS011;6681;53.254;10.398;2023-05-07T05:17:35;9.77;;;8.13;;
13230;SDS011;6681;53.254;10.398;2023-05-07T05:20:01;11.63;;;8.27;;
13230;SDS011;6681;53.254;10.398;2023-05-07T05:22:30;10.17;;;9.13;;
13230;SDS011;6681;53.254;10.398;2023-05-07T05:24:56;13.33;;;7.73;;
13230;SDS011;6681;53.254;10.398;2023-05-07T05:27:22;9.73;;;8.73;;
13230;SDS011;6681;53.254;10.398;2023-05-07T05:29:48;10.37;;;8.30;;
13230;SDS011;6681;53.254;10.398;2023-05-07T05:32:13;10.37;;;8.27;;
13230;SDS011;6681;53.254;10.398;2023-05-07T05:34:39;10.80;;;8.77;;
13230;SDS011;6681;53.254;10.398;2023-05-07T05:37:04;9.17;;;7.57;;
13230;SDS011;6681;53.254;10.398;2023-05-07T05:39:30;9.53;;;8.50;;
13230;SDS011;6681;53.254;10.398;2023-05-07T05:41:56;8.33;;;7.37;;
13230;SDS011;6681;53.254;10.398;2023-05-07T05:44:21;11.57;;;8.17;;
13230;SDS011;6681;53.254;10.398;2023-05-07T05:46:47;11.50;;;8.20;;
13230;SDS011;6681;53.254;10.398;2023-05-07T05:49:14;11.07;;;8.70;;
13230;SDS011;6681;53.254;10.398;2023-05-07T05:51:40;9.77;;;7.70;;
13230;SDS011;6681;53.254;10.398;2023-05-07T05:54:06;9.20;;;6.43;;
13230;SDS011;6681;53.254;10.398;2023-05-07T05:56:31;7.97;;;7.07;;
13230;SDS011;6681;53.254;10.398;2023-05-07T05:58:57;8.60;;;7.40;;
13230;SDS011;6681;53.254;10.398;2023-05-07T06:01:23;11.70;;;7.93;;
13230;SDS011;6681;53.254;10.398;2023-05-07T06:03:49;11.33;;;7.97;;
13230;SDS011;6681;53.254;10.398;2023-05-07T06:06:15;10.87;;;8.10;;
13230;SDS011;6681;53.254;10.398;2023-05-07T06:08:40;8.57;;;7.10;;
13230;SDS011;6681;53.254;10.398;2023-05-07T06:11:06;10.07;;;7.33;;
13230;SDS011;6681;53.254;10.398;2023-05-07T06:13:32;12.37;;;7.97;;
13230;SDS011;6681;53.254;10.398;2023-05-07T06:15:58;11.97;;;9.37;;
13230;SDS011;6681;53.254;10.398;2023-05-07T06:18:23;11.50;;;9.00;;
13230;SDS011;6681;53.254;10.398;2023-05-07T06:20:50;10.13;;;7.63;;
13230;SDS011;6681;53.254;10.398;2023-05-07T06:23:16;11.63;;;8.53;;
13230;SDS011;6681;53.254;10.398;2023-05-07T06:25:45;10.47;;;9.00;;
13230;SDS011;6681;53.254;10.398;2023-05-07T06:28:13;13.57;;;8.13;;
13230;SDS011;6681;53.254;10.398;2023-05-07T06:30:38;9.93;;;7.47;;
13230;SDS011;6681;53.254;10.398;2023-05-07T06:33:05;9.10;;;7.10;;
13230;SDS011;6681;53.254;10.398;2023-05-07T06:35:31;11.47;;;8.37;;
13230;SDS011;6681;53.254;10.398;2023-05-07T06:37:56;8.23;;;6.97;;
13230;SDS011;6681;53.254;10.398;2023-05-07T06:40:22;8.13;;;7.23;;
13230;SDS011;6681;53.254;10.398;2023-05-07T06:42:47;11.07;;;7.70;;
13230;SDS011;6681;53.254;10.398;2023-05-07T06:45:13;7.07;;;6.30;;
13230;SDS011;6681;53.254;10.398;2023-05-07T06:47:39;8.17;;;6.20;;
13230;SDS011;6681;53.254;10.398;2023-05-07T06:50:05;8.63;;;6.83;;
13230;SDS011;6681;53.254;10.398;2023-05-07T06:52:31;8.70;;;6.63;;
13230;SDS011;6681;53.254;10.398;2023-05-07T06:54:56;9.53;;;7.37;;
13230;SDS011;6681;53.254;10.398;2023-05-07T06:57:22;7.13;;;6.30;;
13230;SDS011;6681;53.254;10.398;2023-05-07T06:59:48;7.57;;;6.20;;
13230;SDS011;6681;53.254;10.398;2023-05-07T07:02:14;8.97;;;6.63;;
13230;SDS011;6681;53.254;10.398;2023-05-07T07:04:40;9.20;;;6.47;;
13230;SDS011;6681;53.254;10.398;2023-05-07T07:07:06;8.77;;;7.00;;
13230;SDS011;6681;53.254;10.398;2023-05-07T07:09:32;11.20;;;6.93;;
13230;SDS011;6681;53.254;10.398;2023-05-07T07:11:58;9.23;;;7.43;;
13230;SDS011;6681;53.254;10.398;2023-05-07T07:14:23;10.40;;;7.33;;
13230;SDS011;6681;53.254;10.398;2023-05-07T07:16:49;7.00;;;5.50;;
13230;SDS011;6681;53.254;10.398;2023-05-07T07:19:15;6.17;;;5.57;;
13230;SDS011;6681;53.254;10.398;2023-05-07T07:21:49;8.47;;;7.23;;
13230;SDS011;6681;53.254;10.398;2023-05-07T07:24:15;8.60;;;6.33;;
13230;SDS011;6681;53.254;10.398;2023-05-07T07:26:44;5.97;;;5.33;;
13230;SDS011;6681;53.254;10.398;2023-05-07T07:29:10;7.43;;;6.00;;
13230;SDS011;6681;53.254;10.398;2023-05-07T07:31:35;7.07;;;6.37;;
13230;SDS011;6681;53.254;10.398;2023-05-07T07:34:01;9.03;;;6.27;;
13230;SDS011;6681;53.254;10.398;2023-05-07T07:36:27;6.40;;;5.57;;
13230;SDS011;6681;53.254;10.398;2023-05-07T07:38:53;6.60;;;5.90;;
13230;SDS011;6681;53.254;10.398;2023-05-07T07:41:19;7.23;;;6.23;;
13230;SDS011;6681;53.254;10.398;2023-05-07T07:43:45;8.63;;;5.80;;
13230;SDS011;6681;53.254;10.398;2023-05-07T07:46:11;6.87;;;6.27;;
13230;SDS011;6681;53.254;10.398;2023-05-07T07:48:37;5.53;;;5.00;;
13230;SDS011;6681;53.254;10.398;2023-05-07T07:51:03;5.67;;;5.20;;
13230;SDS011;6681;53.254;10.398;2023-05-07T07:53:28;7.87;;;5.47;;
13230;SDS011;6681;53.254;10.398;2023-05-07T07:55:55;9.20;;;5.70;;
13230;SDS011;6681;53.254;10.398;2023-05-07T07:58:21;6.87;;;6.13;;
13230;SDS011;6681;53.254;10.398;2023-05-07T08:00:47;6.90;;;5.53;;
13230;SDS011;6681;53.254;10.398;2023-05-07T08:03:12;6.00;;;5.40;;
13230;SDS011;6681;53.254;10.398;2023-05-07T08:05:39;6.40;;;5.67;;
13230;SDS011;6681;53.254;10.398;2023-05-07T08:08:05;6.37;;;5.43;;
13230;SDS011;6681;53.254;10.398;2023-05-07T08:10:31;6.87;;;6.13;;
13230;SDS011;6681;53.254;10.398;2023-05-07T08:12:59;7.23;;;5.97;;
13230;SDS011;6681;53.254;10.398;2023-05-07T08:15:25;6.27;;;5.67;;
13230;SDS011;6681;53.254;10.398;2023-05-07T08:17:51;7.87;;;7.17;;
13230;SDS011;6681;53.254;10.398;2023-05-07T08:20:17;9.57;;;6.20;;
13230;SDS011;6681;53.254;10.398;2023-05-07T08:22:42;6.50;;;5.80;;
13230;SDS011;6681;53.254;10.398;2023-05-07T08:25:08;7.57;;;6.77;;
13230;SDS011;6681;53.254;10.398;2023-05-07T08:27:34;8.80;;;6.93;;
13230;SDS011;6681;53.254;10.398;2023-05-07T08:30:00;8.20;;;7.40;;
13230;SDS011;6681;53.254;10.398;2023-05-07T08:32:25;7.20;;;6.40;;
13230;SDS011;6681;53.254;10.398;2023-05-07T08:34:51;7.30;;;6.07;;
13230;SDS011;6681;53.254;10.398;2023-05-07T08:37:17;9.73;;;6.57;;
13230;SDS011;6681;53.254;10.398;2023-05-07T08:39:43;8.80;;;7.37;;
13230;SDS011;6681;53.254;10.398;2023-05-07T08:42:08;8.03;;;7.27;;
13230;SDS011;6681;53.254;10.398;2023-05-07T08:44:36;6.60;;;5.90;;
13230;SDS011;6681;53.254;10.398;2023-05-07T08:47:06;9.83;;;8.27;;
13230;SDS011;6681;53.254;10.398;2023-05-07T08:49:32;7.20;;;6.33;;
13230;SDS011;6681;53.254;10.398;2023-05-07T08:51:59;7.50;;;6.80;;
13230;SDS011;6681;53.254;10.398;2023-05-07T08:54:25;9.73;;;6.70;;
13230;SDS011;6681;53.254;10.398;2023-05-07T08:56:52;10.23;;;6.53;;
13230;SDS011;6681;53.254;10.398;2023-05-07T08:59:18;8.17;;;7.37;;
13230;SDS011;6681;53.254;10.398;2023-05-07T09:01:43;9.27;;;7.47;;
13230;SDS011;6681;53.254;10.398;2023-05-07T09:04:12;11.17;;;9.00;;
13230;SDS011;6681;53.254;10.398;2023-05-07T09:06:38;8.20;;;7.40;;
13230;SDS011;6681;53.254;10.398;2023-05-07T09:09:06;9.30;;;8.40;;
13230;SDS011;6681;53.254;10.398;2023-05-07T09:11:32;9.60;;;6.90;;
13230;SDS011;6681;53.254;10.398;2023-05-07T09:13:58;7.10;;;6.37;;
13230;SDS011;6681;53.254;10.398;2023-05-07T09:16:28;9.60;;;7.50;;
13230;SDS011;6681;53.254;10.398;2023-05-07T09:18:57;12.97;;;7.00;;
13230;SDS011;6681;53.254;10.398;2023-05-07T09:21:24;10.40;;;8.40;;
13230;SDS011;6681;53.254;10.398;2023-05-07T09:23:51;7.87;;;6.40;;
13230;SDS011;6681;53.254;10.398;2023-05-07T09:26:17;7.93;;;7.17;;
13230;SDS011;6681;53.254;10.398;2023-05-07T09:28:43;8.07;;;6.70;;
13230;SDS011;6681;53.254;10.398;2023-05-07T09:31:10;9.17;;;7.67;;
13230;SDS011;6681;53.254;10.398;2023-05-07T09:33:36;8.70;;;7.63;;
13230;SDS011;6681;53.254;10.398;2023-05-07T09:36:03;9.10;;;7.63;;
13230;SDS011;6681;53.254;10.398;2023-05-07T09:38:30;8.73;;;7.63;;
13230;SDS011;6681;53.254;10.398;2023-05-07T09:41:01;9.07;;;6.67;;
13230;SDS011;6681;53.254;10.398;2023-05-07T09:43:31;8.10;;;7.30;;
13230;SDS011;6681;53.254;10.398;2023-05-07T09:46:00;7.70;;;6.90;;
13230;SDS011;6681;53.254;10.398;2023-05-07T09:48:29;9.87;;;7.03;;
13230;SDS011;6681;53.254;10.398;2023-05-07T09:50:55;9.20;;;7.73;;
13230;SDS011;6681;53.254;10.398;2023-05-07T09:53:23;7.83;;;7.03;;
13230;SDS011;6681;53.254;10.398;2023-05-07T09:55:49;8.37;;;6.97;;
13230;SDS011;6681;53.254;10.398;2023-05-07T09:58:16;8.80;;;7.90;;
13230;SDS011;6681;53.254;10.398;2023-05-07T10:00:43;8.03;;;7.20;;
13230;SDS011;6681;53.254;10.398;2023-05-07T10:03:10;8.03;;;6.33;;
13230;SDS011;6681;53.254;10.398;2023-05-07T10:05:37;7.67;;;6.87;;
13230;SDS011;6681;53.254;10.398;2023-05-07T10:08:04;8.97;;;7.33;;
13230;SDS011;6681;53.254;10.398;2023-05-07T10:10:32;9.37;;;7.23;;
13230;SDS011;6681;53.254;10.398;2023-05-07T10:12:58;9.00;;;6.23;;
13230;SDS011;6681;53.254;10.398;2023-05-07T10:15:24;8.23;;;6.97;;
13230;SDS011;6681;53.254;10.398;2023-05-07T10:17:50;8.23;;;6.90;;
13230;SDS011;6681;53.254;10.398;2023-05-07T10:20:18;7.57;;;6.67;;
13230;SDS011;6681;53.254;10.398;2023-05-07T10:22:45;7.97;;;6.43;;
13230;SDS011;6681;53.254;10.398;2023-05-07T10:27:43;6.57;;;5.97;;
13230;SDS011;6681;53.254;10.398;2023-05-07T10:30:14;6.73;;;5.80;;
13230;SDS011;6681;53.254;10.398;2023-05-07T10:33:06;7.07;;;5.50;;
13230;SDS011;6681;53.254;10.398;2023-05-07T10:35:38;7.23;;;6.17;;
13230;SDS011;6681;53.254;10.398;2023-05-07T10:38:07;6.40;;;5.80;;
13230;SDS011;6681;53.254;10.398;2023-05-07T10:40:33;13.17;;;6.67;;
13230;SDS011;6681;53.254;10.398;2023-05-07T10:43:03;7.67;;;6.97;;
13230;SDS011;6681;53.254;10.398;2023-05-07T10:45:30;11.80;;;10.60;;
13230;SDS011;6681;53.254;10.398;2023-05-07T10:48:09;7.37;;;6.37;;
13230;SDS011;6681;53.254;10.398;2023-05-07T10:50:37;7.03;;;6.10;;
13230;SDS011;6681;53.254;10.398;2023-05-07T10:55:42;7.53;;;5.20;;
13230;SDS011;6681;53.254;10.398;2023-05-07T11:00:46;5.57;;;5.07;;
13230;SDS011;6681;53.254;10.398;2023-05-07T11:03:12;6.33;;;5.73;;
13230;SDS011;6681;53.254;10.398;2023-05-07T11:05:40;7.67;;;5.27;;
13230;SDS011;6681;53.254;10.398;2023-05-07T11:08:06;9.43;;;6.07;;
13230;SDS011;6681;53.254;10.398;2023-05-07T11:13:17;6.07;;;5.57;;
13230;SDS011;6681;53.254;10.398;2023-05-07T11:15:45;7.20;;;6.33;;
13230;SDS011;6681;53.254;10.398;2023-05-07T11:18:12;8.30;;;6.33;;
13230;SDS011;6681;53.254;10.398;2023-05-07T11:20:55;5.07;;;4.57;;
13230;SDS011;6681;53.254;10.398;2023-05-07T11:26:00;5.17;;;4.67;;
13230;SDS011;6681;53.254;10.398;2023-05-07T11:28:36;5.20;;;4.67;;
13230;SDS011;6681;53.254;10.398;2023-05-07T11:31:03;5.60;;;4.50;;
13230;SDS011;6681;53.254;10.398;2023-05-07T11:33:32;6.73;;;5.17;;
13230;SDS011;6681;53.254;10.398;2023-05-07T11:35:59;5.97;;;4.57;;
13230;SDS011;6681;53.254;10.398;2023-05-07T11:38:25;4.90;;;4.47;;
13230;SDS011;6681;53.254;10.398;2023-05-07T11:40:56;4.93;;;4.53;;
13230;SDS011;6681;53.254;10.398;2023-05-07T11:43:27;4.60;;;4.03;;
13230;SDS011;6681;53.254;10.398;2023-05-07T11:45:53;4.33;;;3.97;;
13230;SDS011;6681;53.254;10.398;2023-05-07T11:48:19;4.07;;;3.30;;
13230;SDS011;6681;53.254;10.398;2023-05-07T11:50:54;4.67;;;4.27;;
13230;SDS011;6681;53.254;10.398;2023-05-07T11:53:25;3.90;;;3.47;;
13230;SDS011;6681;53.254;10.398;2023-05-07T11:55:52;4.07;;;3.50;;
13230;SDS011;6681;53.254;10.398;2023-05-07T11:58:20;4.63;;;3.83;;
13230;SDS011;6681;53.254;10.398;2023-05-07T12:00:48;9.97;;;4.97;;
13230;SDS011;6681;53.254;10.398;2023-05-07T12:03:14;3.33;;;3.03;;
13230;SDS011;6681;53.254;10.398;2023-05-07T12:05:40;4.47;;;3.87;;
13230;SDS011;6681;53.254;10.398;2023-05-07T12:08:06;5.83;;;3.37;;
13230;SDS011;6681;53.254;10.398;2023-05-07T12:10:32;4.97;;;4.57;;
13230;SDS011;6681;53.254;10.398;2023-05-07T12:12:58;3.77;;;3.47;;
13230;SDS011;6681;53.254;10.398;2023-05-07T12:15:24;3.20;;;2.90;;
13230;SDS011;6681;53.254;10.398;2023-05-07T12:17:50;4.80;;;3.70;;
13230;SDS011;6681;53.254;10.398;2023-05-07T12:20:17;3.20;;;2.90;;
13230;SDS011;6681;53.254;10.398;2023-05-07T12:22:43;3.47;;;3.17;;
13230;SDS011;6681;53.254;10.398;2023-05-07T12:25:09;4.87;;;2.70;;
13230;SDS011;6681;53.254;10.398;2023-05-07T12:27:36;3.77;;;3.47;;
13230;SDS011;6681;53.254;10.398;2023-05-07T12:30:04;3.63;;;3.10;;
13230;SDS011;6681;53.254;10.398;2023-05-07T12:32:30;5.27;;;4.50;;
13230;SDS011;6681;53.254;10.398;2023-05-07T12:35:01;4.07;;;3.07;;
13230;SDS011;6681;53.254;10.398;2023-05-07T12:37:27;4.40;;;3.33;;
13230;SDS011;6681;53.254;10.398;2023-05-07T12:40:08;3.30;;;3.00;;
13230;SDS011;6681;53.254;10.398;2023-05-07T12:42:35;2.90;;;2.70;;
13230;SDS011;6681;53.254;10.398;2023-05-07T12:45:11;3.30;;;3.10;;
13230;SDS011;6681;53.254;10.398;2023-05-07T12:47:38;2.73;;;2.53;;
13230;SDS011;6681;53.254;10.398;2023-05-07T12:50:07;3.30;;;3.00;;
13230;SDS011;6681;53.254;10.398;2023-05-07T12:52:33;3.83;;;2.60;;
13230;SDS011;6681;53.254;10.398;2023-05-07T12:55:08;2.90;;;2.57;;
13230;SDS011;6681;53.254;10.398;2023-05-07T12:57:50;2.60;;;2.40;;
13230;SDS011;6681;53.254;10.398;2023-05-07T13:00:16;3.53;;;2.40;;
13230;SDS011;6681;53.254;10.398;2023-05-07T13:02:43;2.77;;;2.47;;
13230;SDS011;6681;53.254;10.398;2023-05-07T13:05:12;3.47;;;2.33;;
13230;SDS011;6681;53.254;10.398;2023-05-07T13:07:38;4.20;;;3.43;;
13230;SDS011;6681;53.254;10.398;2023-05-07T13:10:04;2.37;;;2.07;;
13230;SDS011;6681;53.254;10.398;2023-05-07T13:12:30;5.57;;;3.30;;
13230;SDS011;6681;53.254;10.398;2023-05-07T13:14:55;2.30;;;2.10;;
13230;SDS011;6681;53.254;10.398;2023-05-07T13:17:21;8.20;;;3.93;;
13230;SDS011;6681;53.254;10.398;2023-05-07T13:19:46;2.53;;;1.90;;
13230;SDS011;6681;53.254;10.398;2023-05-07T13:22:12;2.23;;;2.13;;
13230;SDS011;6681;53.254;10.398;2023-05-07T13:24:38;2.70;;;1.50;;
13230;SDS011;6681;53.254;10.398;2023-05-07T13:27:06;1.53;;;1.43;;
13230;SDS011;6681;53.254;10.398;2023-05-07T13:29:32;3.63;;;2.13;;
13230;SDS011;6681;53.254;10.398;2023-05-07T13:31:57;2.40;;;1.60;;
13230;SDS011;6681;53.254;10.398;2023-05-07T13:34:23;3.37;;;1.77;;
13230;SDS011;6681;53.254;10.398;2023-05-07T13:36:49;2.33;;;2.13;;
13230;SDS011;6681;53.254;10.398;2023-05-07T13:39:15;2.60;;;2.27;;
13230;SDS011;6681;53.254;10.398;2023-05-07T13:41:40;1.40;;;1.40;;
13230;SDS011;6681;53.254;10.398;2023-05-07T13:44:06;1.73;;;1.63;;
13230;SDS011;6681;53.254;10.398;2023-05-07T13:46:32;1.80;;;1.70;;
13230;SDS011;6681;53.254;10.398;2023-05-07T13:48:57;1.53;;;1.43;;
13230;SDS011;6681;53.254;10.398;2023-05-07T13:51:23;3.93;;;1.40;;
13230;SDS011;6681;53.254;10.398;2023-05-07T13:53:49;1.40;;;1.30;;
13230;SDS011;6681;53.254;10.398;2023-05-07T13:56:15;1.63;;;1.50;;
13230;SDS011;6681;53.254;10.398;2023-05-07T13:58:43;1.43;;;1.20;;
13230;SDS011;6681;53.254;10.398;2023-05-07T14:01:08;2.07;;;1.87;;
13230;SDS011;6681;53.254;10.398;2023-05-07T14:03:34;1.40;;;1.30;;
13230;SDS011;6681;53.254;10.398;2023-05-07T14:06:02;1.73;;;1.60;;
13230;SDS011;6681;53.254;10.398;2023-05-07T14:08:28;1.60;;;1.50;;
13230;SDS011;6681;53.254;10.398;2023-05-07T14:10:54;1.40;;;1.37;;
13230;SDS011;6681;53.254;10.398;2023-05-07T14:13:20;2.30;;;1.43;;
13230;SDS011;6681;53.254;10.398;2023-05-07T14:15:45;1.73;;;1.63;;
13230;SDS011;6681;53.254;10.398;2023-05-07T14:18:13;1.53;;;1.43;;
13230;SDS011;6681;53.254;10.398;2023-05-07T14:20:39;1.20;;;1.20;;
13230;SDS011;6681;53.254;10.398;2023-05-07T14:23:04;1.43;;;1.33;;
13230;SDS011;6681;53.254;10.398;2023-05-07T14:25:30;1.50;;;1.40;;
13230;SDS011;6681;53.254;10.398;2023-05-07T14:27:55;3.20;;;1.73;;
13230;SDS011;6681;53.254;10.398;2023-05-07T14:30:21;1.93;;;1.43;;
13230;SDS011;6681;53.254;10.398;2023-05-07T14:32:49;2.00;;;1.90;;
13230;SDS011;6681;53.254;10.398;2023-05-07T14:35:15;1.53;;;1.10;;
13230;SDS011;6681;53.254;10.398;2023-05-07T14:37:41;2.47;;;2.37;;
13230;SDS011;6681;53.254;10.398;2023-05-07T14:40:07;1.80;;;1.70;;
13230;SDS011;6681;53.254;10.398;2023-05-07T14:42:33;3.10;;;2.13;;
13230;SDS011;6681;53.254;10.398;2023-05-07T14:44:58;1.30;;;1.20;;
13230;SDS011;6681;53.254;10.398;2023-05-07T14:47:24;2.17;;;1.47;;
13230;SDS011;6681;53.254;10.398;2023-05-07T14:49:49;1.40;;;1.33;;
13230;SDS011;6681;53.254;10.398;2023-05-07T14:52:16;3.23;;;1.30;;